ソウル/仁川 の空港の天気 - METARとTAF

仁川国際空港 ( RKSI / ICN ) - 韓国 仁川広域市 (ソウル特別市近郊)
飛行場実況気象(Metar)
観測時間11/17 10:00 KST (11/17 01:00 UTC)
風向・風速東北東 3m/s
視程10km以上
天気現象
なし
気温6℃
湿度31%
気圧1026hPa
METARRKSI 170100Z 07006KT 040V110 CAVOK 06/M10 Q1026 NOSIG
過去の天気等 Google飛行場航空写真 Wunderground天気予報

過去48時間のMETAR

飛行場予報(TAF)
発表時間: 11/17 08:00 KST (11/16 23:00 UTC)
予報対象時間: 17日9時 KST ~ 18日15時 KST
風向・風速北東 3m/s
視程10km以上
なし
17日11時 KST ~ 17日12時 KST に徐々に
風向・風速北西 5m/s
17日20時 KST ~ 17日21時 KST に徐々に
風向・風速北東 3m/s
18日9時 KST ~ 18日10時 KST に徐々に
風向・風速南南東 3m/s
18日14時 KST ~ 18日15時 KST に徐々に
風向・風速西 4m/s
TAF RKSI 162300Z 1700/1806 05006KT CAVOK TX09/1706Z TN02/1721Z TX10/1805Z
BECMG 1702/1703 31010KT
BECMG 1711/1712 05006KT
BECMG 1800/1801 16006KT
BECMG 1805/1806 27007KT